Time;durP1;ratioP1;P1;durP2;ratioP2;P2;SDS_P1;SDS_P2;PMS_P1;PMS_P2;Temp;Humidity;BMP_temperature;BMP_pressure;BME280_temperature;BME280_humidity;BME280_pressure;Samples;Min_cycle;Max_cycle;Signal;HPM_P1;HPM_P2
2024/02/05 00:02:14;;;;;;;;;;;17.60;67.00;;;;;;5018774;28;1277;-72
2024/02/05 00:04:40;;;;;;;;;;;17.60;67.10;;;;;;5016206;28;1155;-72
2024/02/05 00:07:05;;;;;;;;;;;17.50;67.00;;;;;;5018725;28;1390;-72
2024/02/05 00:09:31;;;;;;;;;;;17.60;67.10;;;;;;5018628;28;1109;-72
2024/02/05 00:11:56;;;;;;;;;;;17.60;67.10;;;;;;5016495;28;1907;-72
2024/02/05 00:14:23;;;;;;;;;;;17.60;67.10;;;;;;5020631;28;1192;-72
2024/02/05 00:16:48;;;;;;;;;;;17.60;67.50;;;;;;5019206;28;1340;-72
2024/02/05 00:19:13;;;;;;;;;;;17.60;67.50;;;;;;5023826;28;1186;-70
2024/02/05 00:21:39;;;;;;;;;;;17.60;67.60;;;;;;5020575;28;1266;-72
2024/02/05 00:24:05;;;;;;;;;;;17.50;67.50;;;;;;5022913;28;950;-70
2024/02/05 00:26:30;;;;;;;;;;;17.60;67.80;;;;;;5022053;28;1527;-70
2024/02/05 00:28:55;;;;;;;;;;;17.60;67.80;;;;;;5019979;28;1374;-71
2024/02/05 00:31:21;;;;;;;;;;;17.60;67.80;;;;;;5021247;28;1182;-70
2024/02/05 00:33:46;;;;;;;;;;;17.60;67.90;;;;;;5019767;28;1902;-71
2024/02/05 00:36:12;;;;;;;;;;;17.60;67.80;;;;;;5020928;28;1325;-70
2024/02/05 00:38:37;;;;;;;;;;;17.60;67.90;;;;;;5024763;28;1351;-70
2024/02/05 00:41:03;;;;;;;;;;;17.60;67.90;;;;;;5022396;28;997;-70
2024/02/05 00:43:29;;;;;;;;;;;17.60;67.90;;;;;;5024352;28;1473;-70
2024/02/05 00:45:54;;;;;;;;;;;17.60;67.80;;;;;;5022138;28;1326;-71
2024/02/05 00:48:20;;;;;;;;;;;17.70;67.80;;;;;;5022244;28;1229;-73
2024/02/05 00:50:45;;;;;;;;;;;17.70;67.70;;;;;;5023034;28;1311;-70
2024/02/05 00:53:11;;;;;;;;;;;17.70;67.60;;;;;;5017678;28;1898;-69
2024/02/05 00:55:36;;;;;;;;;;;17.70;67.50;;;;;;5019665;28;1239;-70
2024/02/05 00:58:03;;;;;;;;;;;17.70;67.40;;;;;;5021178;28;1372;-70
2024/02/05 01:00:28;;;;;;;;;;;17.70;67.40;;;;;;5021123;28;1473;-70
2024/02/05 01:02:54;;;;;;;;;;;17.70;67.50;;;;;;5017144;28;1283;-70
2024/02/05 01:05:19;;;;;;;;;;;17.70;68.40;;;;;;5005590;28;1562;-70
2024/02/05 01:07:45;;;;;;;;;;;17.70;67.80;;;;;;5023365;28;1292;-70
2024/02/05 01:10:10;;;;;;;;;;;17.70;67.90;;;;;;5018840;28;1199;-70
2024/02/05 01:12:39;;;;;;;;;;;17.70;68.40;;;;;;5019248;28;1910;-71
2024/02/05 01:15:04;;;;;;;;;;;17.70;68.60;;;;;;5018768;28;1323;-72
2024/02/05 01:17:31;;;;;;;;;;;17.70;68.50;;;;;;5018021;28;1379;-72
2024/02/05 01:19:57;;;;;;;;;;;17.70;68.60;;;;;;5026051;28;1671;-71
2024/02/05 01:22:22;;;;;;;;;;;17.70;68.80;;;;;;5018266;28;1456;-71
2024/02/05 01:24:48;;;;;;;;;;;17.70;69.10;;;;;;5026490;28;1493;-72
2024/02/05 01:27:13;;;;;;;;;;;17.70;69.20;;;;;;5019070;28;1425;-72
2024/02/05 01:29:40;;;;;;;;;;;17.70;69.40;;;;;;5019505;28;1761;-72
2024/02/05 01:32:06;;;;;;;;;;;17.70;69.70;;;;;;5017435;28;1964;-71
2024/02/05 01:34:31;;;;;;;;;;;17.70;69.80;;;;;;5020671;28;1438;-71
2024/02/05 01:36:57;;;;;;;;;;;17.70;70.00;;;;;;5019276;28;1444;-72
2024/02/05 01:39:22;;;;;;;;;;;17.70;70.20;;;;;;5021119;28;1841;-72
2024/02/05 01:41:48;;;;;;;;;;;17.70;70.30;;;;;;5017877;28;1228;-72
2024/02/05 01:44:13;;;;;;;;;;;17.70;70.40;;;;;;5020157;28;1452;-71
2024/02/05 01:46:39;;;;;;;;;;;17.70;71.40;;;;;;5018233;28;1818;-72
2024/02/05 01:49:06;;;;;;;;;;;17.70;72.00;;;;;;5015758;28;1391;-73
2024/02/05 01:51:50;;;;;;;;;;;17.80;71.80;;;;;;5015291;28;1395;-71
2024/02/05 01:54:15;;;;;;;;;;;17.80;71.70;;;;;;5015808;28;1506;-72
2024/02/05 01:56:41;;;;;;;;;;;17.90;71.90;;;;;;5022298;28;1244;-71
2024/02/05 01:59:06;;;;;;;;;;;17.90;72.00;;;;;;5021687;28;1349;-72
2024/02/05 02:01:32;;;;;;;;;;;17.90;71.70;;;;;;5019938;28;1336;-71
2024/02/05 02:03:58;;;;;;;;;;;17.90;71.10;;;;;;5018116;28;1686;-71
2024/02/05 02:06:24;;;;;;;;;;;17.90;70.70;;;;;;5019022;28;1437;-71
2024/02/05 02:08:49;;;;;;;;;;;17.90;70.70;;;;;;5016281;28;1423;-71
2024/02/05 02:11:15;;;;;;;;;;;17.90;70.60;;;;;;5015757;28;1483;-71
2024/02/05 02:13:40;;;;;;;;;;;17.90;70.60;;;;;;5021852;28;1976;-72
2024/02/05 02:16:07;;;;;;;;;;;17.90;70.70;;;;;;5017105;28;1164;-71
2024/02/05 02:18:33;;;;;;;;;;;17.90;70.70;;;;;;5020520;28;1442;-71
2024/02/05 02:20:58;;;;;;;;;;;17.90;70.60;;;;;;5018954;28;1651;-71
2024/02/05 02:23:29;;;;;;;;;;;17.90;70.50;;;;;;5020213;28;1247;-72
2024/02/05 02:25:55;;;;;;;;;;;17.90;70.40;;;;;;5017070;28;1480;-72
2024/02/05 02:28:21;;;;;;;;;;;17.90;70.40;;;;;;5018245;28;1542;-72
2024/02/05 02:30:46;;;;;;;;;;;17.90;70.40;;;;;;5018116;28;1347;-72
2024/02/05 02:33:12;;;;;;;;;;;17.90;70.40;;;;;;5020692;28;1951;-71
2024/02/05 02:35:42;;;;;;;;;;;17.90;70.50;;;;;;5021330;28;1422;-72
2024/02/05 02:38:09;;;;;;;;;;;17.90;70.50;;;;;;5019980;28;1292;-71
2024/02/05 02:40:35;;;;;;;;;;;17.90;70.50;;;;;;5024216;28;1673;-71
2024/02/05 02:43:02;;;;;;;;;;;17.80;70.40;;;;;;5020603;28;1433;-71
2024/02/05 02:45:28;;;;;;;;;;;17.80;70.40;;;;;;5030460;28;1344;-71
2024/02/05 02:47:53;;;;;;;;;;;17.90;70.30;;;;;;5023467;28;1399;-72
2024/02/05 02:50:19;;;;;;;;;;;17.80;70.40;;;;;;5021291;28;1570;-72
2024/02/05 02:52:45;;;;;;;;;;;17.80;70.50;;;;;;5019570;28;1906;-72
2024/02/05 02:55:10;;;;;;;;;;;17.80;70.60;;;;;;5019749;28;1130;-72
2024/02/05 02:57:35;;;;;;;;;;;17.90;70.30;;;;;;5021519;28;1337;-72
2024/02/05 03:00:01;;;;;;;;;;;17.80;70.10;;;;;;5022506;28;1252;-72
2024/02/05 03:02:26;;;;;;;;;;;17.80;70.20;;;;;;5008307;28;1265;-72
2024/02/05 03:04:54;;;;;;;;;;;17.90;70.60;;;;;;5022704;28;1308;-72
2024/02/05 03:07:20;;;;;;;;;;;17.80;70.10;;;;;;5022948;28;1371;-72
2024/02/05 03:09:45;;;;;;;;;;;17.80;69.30;;;;;;5021603;28;1357;-72
2024/02/05 03:12:11;;;;;;;;;;;17.80;69.20;;;;;;5022200;28;1997;-72
2024/02/05 03:14:36;;;;;;;;;;;17.80;69.50;;;;;;5021928;28;1603;-72
2024/02/05 03:17:03;;;;;;;;;;;17.70;69.50;;;;;;5021944;28;1689;-72
2024/02/05 03:19:29;;;;;;;;;;;17.70;69.40;;;;;;5022574;28;1466;-71
2024/02/05 03:21:56;;;;;;;;;;;17.70;69.40;;;;;;5023208;28;1534;-72
2024/02/05 03:24:21;;;;;;;;;;;17.70;69.30;;;;;;5022292;28;1522;-72
2024/02/05 03:26:46;;;;;;;;;;;17.60;69.20;;;;;;5022279;28;1412;-71
2024/02/05 03:29:12;;;;;;;;;;;17.60;69.20;;;;;;5019033;28;1370;-72
2024/02/05 03:31:41;;;;;;;;;;;17.60;69.10;;;;;;5021313;28;1507;-71
2024/02/05 03:34:06;;;;;;;;;;;17.60;69.10;;;;;;5022055;28;1459;-70
2024/02/05 03:36:32;;;;;;;;;;;17.60;69.10;;;;;;5025569;28;1467;-70
2024/02/05 03:38:57;;;;;;;;;;;17.60;69.00;;;;;;5022605;28;1382;-69
2024/02/05 03:41:22;;;;;;;;;;;17.60;69.00;;;;;;5023564;28;1351;-69
2024/02/05 03:43:48;;;;;;;;;;;17.60;68.90;;;;;;5023502;28;1725;-70
2024/02/05 03:46:13;;;;;;;;;;;17.50;68.90;;;;;;5022115;28;1342;-71
2024/02/05 03:48:48;;;;;;;;;;;17.50;68.80;;;;;;5023081;28;1689;-71
2024/02/05 03:51:14;;;;;;;;;;;17.50;68.80;;;;;;5019434;28;1345;-71
2024/02/05 03:53:39;;;;;;;;;;;17.50;68.80;;;;;;5020674;28;1907;-71
2024/02/05 03:56:05;;;;;;;;;;;17.50;68.70;;;;;;5021944;28;1380;-71
2024/02/05 03:58:30;;;;;;;;;;;17.50;69.50;;;;;;5023164;28;1301;-70
2024/02/05 04:00:56;;;;;;;;;;;17.50;68.60;;;;;;5019181;28;1332;-70
2024/02/05 04:03:21;;;;;;;;;;;17.50;68.60;;;;;;5021094;28;1287;-71
2024/02/05 04:05:47;;;;;;;;;;;17.50;68.60;;;;;;5020262;28;1539;-70
2024/02/05 04:08:14;;;;;;;;;;;17.50;68.50;;;;;;5019392;28;1458;-70
2024/02/05 04:10:39;;;;;;;;;;;17.50;68.50;;;;;;5020727;28;1403;-72
2024/02/05 04:13:06;;;;;;;;;;;17.50;68.50;;;;;;5021865;28;1974;-72
2024/02/05 04:15:32;;;;;;;;;;;17.50;68.50;;;;;;5022774;28;1448;-72
2024/02/05 04:17:58;;;;;;;;;;;17.50;68.50;;;;;;5021291;28;1272;-71
2024/02/05 04:20:23;;;;;;;;;;;17.40;68.40;;;;;;5021892;28;1251;-71
2024/02/05 04:22:49;;;;;;;;;;;17.50;68.40;;;;;;5019430;28;1014;-71
2024/02/05 04:25:15;;;;;;;;;;;17.40;68.30;;;;;;5022404;28;1463;-71
2024/02/05 04:27:40;;;;;;;;;;;17.40;68.30;;;;;;5021035;28;1515;-71
2024/02/05 04:30:06;;;;;;;;;;;17.40;68.20;;;;;;5028758;28;1081;-72
2024/02/05 04:32:33;;;;;;;;;;;17.40;68.20;;;;;;5020258;28;1902;-72
2024/02/05 04:34:59;;;;;;;;;;;17.40;68.20;;;;;;5020641;28;1261;-71
2024/02/05 04:37:26;;;;;;;;;;;17.40;68.20;;;;;;5022419;28;1458;-71
2024/02/05 04:39:52;;;;;;;;;;;17.40;68.20;;;;;;5022229;28;1321;-70
2024/02/05 04:42:18;;;;;;;;;;;17.40;68.20;;;;;;5019921;28;1247;-73
2024/02/05 04:44:43;;;;;;;;;;;17.40;68.10;;;;;;5016668;28;1312;-71
2024/02/05 04:47:09;;;;;;;;;;;17.40;68.10;;;;;;5019799;28;1319;-71
2024/02/05 04:49:35;;;;;;;;;;;17.40;68.10;;;;;;5018647;28;1397;-70
2024/02/05 04:52:03;;;;;;;;;;;17.40;68.00;;;;;;5021846;28;1959;-72
2024/02/05 04:54:29;;;;;;;;;;;17.40;68.00;;;;;;5019814;28;1637;-71
2024/02/05 04:56:55;;;;;;;;;;;17.40;68.00;;;;;;5022316;28;1293;-72
2024/02/05 04:59:21;;;;;;;;;;;17.40;68.00;;;;;;5018066;28;1462;-71
2024/02/05 05:01:46;;;;;;;;;;;17.40;68.00;;;;;;5022285;28;1264;-70
2024/02/05 05:04:12;;;;;;;;;;;17.40;68.00;;;;;;5021022;28;1378;-70
2024/02/05 05:06:37;;;;;;;;;;;17.40;68.00;;;;;;5019427;28;1676;-71
2024/02/05 05:09:03;;;;;;;;;;;17.40;67.90;;;;;;5017693;28;1379;-72
2024/02/05 05:11:28;;;;;;;;;;;17.40;67.90;;;;;;5021936;28;1477;-70
2024/02/05 05:13:53;;;;;;;;;;;17.40;68.60;;;;;;5017156;28;1910;-71
2024/02/05 05:16:19;;;;;;;;;;;17.40;67.80;;;;;;5019265;28;1614;-71
2024/02/05 05:18:45;;;;;;;;;;;17.40;67.70;;;;;;5019428;28;1273;-71
2024/02/05 05:21:11;;;;;;;;;;;17.40;67.60;;;;;;5019096;28;1217;-71
2024/02/05 05:23:36;;;;;;;;;;;17.40;67.50;;;;;;5027183;28;1241;-70
2024/02/05 05:26:02;;;;;;;;;;;17.50;67.50;;;;;;5020634;28;999;-71
2024/02/05 05:28:27;;;;;;;;;;;17.50;67.30;;;;;;5018871;28;1512;-71
2024/02/05 05:30:53;;;;;;;;;;;17.50;67.20;;;;;;5021632;28;1287;-73
2024/02/05 05:33:18;;;;;;;;;;;17.50;67.10;;;;;;5018791;28;1902;-73
2024/02/05 05:35:43;;;;;;;;;;;17.60;67.10;;;;;;5017150;28;1242;-70
2024/02/05 05:38:09;;;;;;;;;;;17.60;67.00;;;;;;5026690;28;1344;-70
2024/02/05 05:40:34;;;;;;;;;;;17.60;66.90;;;;;;5027294;28;1248;-70
2024/02/05 05:43:00;;;;;;;;;;;17.60;66.80;;;;;;5018643;28;1586;-72
2024/02/05 05:45:29;;;;;;;;;;;17.60;66.70;;;;;;5016084;28;1241;-71
2024/02/05 05:47:54;;;;;;;;;;;17.60;66.50;;;;;;5017352;28;1261;-72
2024/02/05 05:50:19;;;;;;;;;;;17.70;66.50;;;;;;5019274;28;1341;-72
2024/02/05 05:52:45;;;;;;;;;;;17.70;66.40;;;;;;5018470;28;1983;-71
2024/02/05 05:55:10;;;;;;;;;;;17.70;66.30;;;;;;5015891;28;1352;-70
2024/02/05 05:57:36;;;;;;;;;;;17.70;66.20;;;;;;5018120;28;1520;-68
2024/02/05 06:00:05;;;;;;;;;;;17.80;66.20;;;;;;5020364;28;1361;-68
2024/02/05 06:02:30;;;;;;;;;;;17.80;66.10;;;;;;5025309;28;1239;-68
2024/02/05 06:04:56;;;;;;;;;;;17.80;66.00;;;;;;5031017;28;4117;-74
2024/02/05 06:07:21;;;;;;;;;;;17.80;65.90;;;;;;5028696;28;1290;-69
2024/02/05 06:09:47;;;;;;;;;;;17.80;65.80;;;;;;5018576;28;1262;-68
2024/02/05 06:12:13;;;;;;;;;;;17.80;65.70;;;;;;5019726;28;1898;-70
2024/02/05 06:14:38;;;;;;;;;;;17.80;65.60;;;;;;5024071;28;1331;-74
2024/02/05 06:17:04;;;;;;;;;;;17.80;65.50;;;;;;5023514;28;1512;-70
2024/02/05 06:19:29;;;;;;;;;;;17.90;65.50;;;;;;5022269;28;1251;-68
2024/02/05 06:21:55;;;;;;;;;;;17.90;65.50;;;;;;5023835;28;1425;-70
2024/02/05 06:24:20;;;;;;;;;;;17.90;65.50;;;;;;5027054;28;1234;-67
2024/02/05 06:26:46;;;;;;;;;;;17.90;65.40;;;;;;5027224;28;1224;-69
2024/02/05 06:29:11;;;;;;;;;;;17.90;65.40;;;;;;5020206;28;1422;-69
2024/02/05 06:31:37;;;;;;;;;;;17.90;65.40;;;;;;5024040;28;1489;-70
2024/02/05 06:34:03;;;;;;;;;;;17.90;65.40;;;;;;5020878;28;1894;-71
2024/02/05 06:36:28;;;;;;;;;;;17.90;65.30;;;;;;5022237;28;1462;-68
2024/02/05 06:38:53;;;;;;;;;;;17.90;65.30;;;;;;5021570;28;1320;-69
2024/02/05 06:41:19;;;;;;;;;;;17.90;65.30;;;;;;5025714;28;1294;-72
2024/02/05 06:43:46;;;;;;;;;;;17.90;65.40;;;;;;5025994;28;1048;-71
2024/02/05 06:46:13;;;;;;;;;;;17.90;65.40;;;;;;5024693;28;955;-71
2024/02/05 06:48:38;;;;;;;;;;;17.90;65.40;;;;;;5010925;28;1429;-71
2024/02/05 06:51:04;;;;;;;;;;;17.80;65.20;;;;;;5024265;28;919;-71
2024/02/05 06:53:30;;;;;;;;;;;17.80;64.80;;;;;;5024078;28;1911;-71
2024/02/05 06:55:56;;;;;;;;;;;17.80;64.60;;;;;;5022072;28;1484;-69
2024/02/05 06:58:21;;;;;;;;;;;17.80;64.50;;;;;;5027325;28;1296;-71
2024/02/05 07:00:47;;;;;;;;;;;17.80;64.50;;;;;;5023613;28;923;-71
2024/02/05 07:03:12;;;;;;;;;;;17.80;64.50;;;;;;5022012;28;1205;-71
2024/02/05 07:05:38;;;;;;;;;;;17.80;64.60;;;;;;5022406;28;1285;-72
2024/02/05 07:08:04;;;;;;;;;;;17.80;64.70;;;;;;5019829;28;1352;-67
2024/02/05 07:10:29;;;;;;;;;;;17.80;64.80;;;;;;5029440;28;1598;-68
2024/02/05 07:12:55;;;;;;;;;;;17.80;64.80;;;;;;5019043;28;1968;-68
2024/02/05 07:15:20;;;;;;;;;;;17.80;64.90;;;;;;5017657;28;1363;-71
2024/02/05 07:17:47;;;;;;;;;;;17.90;64.90;;;;;;5022659;28;1403;-67
2024/02/05 07:20:12;;;;;;;;;;;18.00;64.80;;;;;;5019417;28;1586;-70
2024/02/05 07:22:37;;;;;;;;;;;18.10;64.70;;;;;;5019944;28;1599;-67
2024/02/05 07:25:03;;;;;;;;;;;18.20;64.60;;;;;;5021006;28;1453;-71
2024/02/05 07:27:29;;;;;;;;;;;18.30;64.30;;;;;;5021694;28;1444;-71
2024/02/05 07:29:54;;;;;;;;;;;18.50;64.10;;;;;;5020216;28;1358;-69
2024/02/05 07:32:20;;;;;;;;;;;18.50;63.80;;;;;;5019057;28;1953;-69
2024/02/05 07:34:46;;;;;;;;;;;18.60;63.70;;;;;;5019801;28;1342;-69
2024/02/05 07:37:11;;;;;;;;;;;18.70;63.50;;;;;;5021643;28;1420;-70
2024/02/05 07:39:37;;;;;;;;;;;18.80;63.30;;;;;;5018685;28;1705;-70
2024/02/05 07:42:02;;;;;;;;;;;18.80;63.10;;;;;;5017108;28;1304;-69
2024/02/05 07:44:28;;;;;;;;;;;18.80;62.90;;;;;;5021940;28;1585;-70
2024/02/05 07:46:53;;;;;;;;;;;18.90;62.80;;;;;;5020053;28;1642;-68
2024/02/05 07:49:19;;;;;;;;;;;18.90;62.60;;;;;;5019171;28;1391;-70
2024/02/05 07:51:45;;;;;;;;;;;18.90;62.60;;;;;;5052226;28;1690;-69
2024/02/05 07:54:11;;;;;;;;;;;18.90;62.50;;;;;;5019722;28;1965;-69
2024/02/05 07:56:37;;;;;;;;;;;18.90;62.40;;;;;;5027184;28;1325;-68
2024/02/05 07:59:03;;;;;;;;;;;18.90;62.40;;;;;;5023050;28;1260;-68
2024/02/05 08:01:31;;;;;;;;;;;19.00;62.50;;;;;;5022830;28;1326;-68
2024/02/05 08:03:56;;;;;;;;;;;19.00;62.40;;;;;;4985176;28;1131912;-69
2024/02/05 08:06:23;;;;;;;;;;;19.00;62.40;;;;;;5024754;28;1335;-68
2024/02/05 08:08:49;;;;;;;;;;;19.10;62.30;;;;;;5020413;28;1277;-68
2024/02/05 08:11:16;;;;;;;;;;;19.10;62.30;;;;;;5021061;28;1340;-69
2024/02/05 08:13:41;;;;;;;;;;;19.20;62.20;;;;;;5023774;28;1963;-69
2024/02/05 08:16:07;;;;;;;;;;;19.20;62.10;;;;;;5019784;28;1335;-68
2024/02/05 08:18:32;;;;;;;;;;;19.20;62.00;;;;;;5023798;28;1287;-69
2024/02/05 08:20:58;;;;;;;;;;;19.20;62.00;;;;;;5023265;28;1341;-69
2024/02/05 08:23:23;;;;;;;;;;;19.20;61.80;;;;;;5023404;28;1257;-67
2024/02/05 08:25:49;;;;;;;;;;;19.30;61.80;;;;;;5027336;28;1319;-69
2024/02/05 08:28:14;;;;;;;;;;;19.30;61.80;;;;;;5019847;28;1320;-69
2024/02/05 08:30:40;;;;;;;;;;;19.30;61.70;;;;;;5018980;28;1567;-69
2024/02/05 08:33:05;;;;;;;;;;;19.30;61.30;;;;;;5019166;28;1973;-69
2024/02/05 08:35:30;;;;;;;;;;;19.20;61.10;;;;;;5027823;28;913;-69
2024/02/05 08:37:56;;;;;;;;;;;19.20;61.00;;;;;;5022084;28;1292;-69
2024/02/05 08:40:21;;;;;;;;;;;19.20;60.90;;;;;;5021324;28;1495;-69
2024/02/05 08:42:47;;;;;;;;;;;19.20;60.90;;;;;;5022967;28;1480;-69
2024/02/05 08:45:13;;;;;;;;;;;19.10;61.00;;;;;;5019266;28;1322;-70
2024/02/05 08:47:39;;;;;;;;;;;19.10;61.10;;;;;;5019961;28;1319;-69
2024/02/05 08:50:04;;;;;;;;;;;19.10;61.10;;;;;;5019715;28;1238;-69
2024/02/05 08:52:30;;;;;;;;;;;19.10;61.20;;;;;;5020942;28;1904;-69
2024/02/05 08:54:55;;;;;;;;;;;19.00;61.30;;;;;;5019432;28;887;-69
2024/02/05 08:57:21;;;;;;;;;;;19.00;61.30;;;;;;5020645;28;1301;-69
2024/02/05 08:59:50;;;;;;;;;;;19.00;61.50;;;;;;5022106;28;1621;-70
2024/02/05 09:02:18;;;;;;;;;;;19.00;61.60;;;;;;5016515;28;1318;-70
2024/02/05 09:04:43;;;;;;;;;;;18.90;61.60;;;;;;5026459;28;1465;-70
2024/02/05 09:07:09;;;;;;;;;;;18.90;61.70;;;;;;5019528;28;1338;-70
2024/02/05 09:09:36;;;;;;;;;;;18.90;61.70;;;;;;5021195;28;1250;-70
2024/02/05 09:12:02;;;;;;;;;;;18.90;61.80;;;;;;5018823;28;1918;-71
2024/02/05 09:14:27;;;;;;;;;;;18.90;61.80;;;;;;5017865;28;1297;-71
2024/02/05 09:16:53;;;;;;;;;;;18.90;61.90;;;;;;5018027;28;1154;-70
2024/02/05 09:19:18;;;;;;;;;;;18.90;61.90;;;;;;5019556;28;1366;-70
2024/02/05 09:21:44;;;;;;;;;;;18.90;61.90;;;;;;5017829;28;1115;-71
2024/02/05 09:24:09;;;;;;;;;;;18.90;61.90;;;;;;5017548;28;1310;-71
2024/02/05 09:26:35;;;;;;;;;;;18.90;61.90;;;;;;5020712;28;1443;-70
2024/02/05 09:29:00;;;;;;;;;;;19.00;61.80;;;;;;5019559;28;1269;-70
2024/02/05 09:31:26;;;;;;;;;;;19.00;61.80;;;;;;5017671;28;1080;-71
2024/02/05 09:33:51;;;;;;;;;;;19.00;61.70;;;;;;5019528;28;1891;-71
2024/02/05 09:36:17;;;;;;;;;;;19.00;61.70;;;;;;5021504;28;1174;-70
2024/02/05 09:38:42;;;;;;;;;;;19.00;61.70;;;;;;5026706;28;1344;-70
2024/02/05 09:41:09;;;;;;;;;;;19.00;61.70;;;;;;5021422;28;1214;-70
2024/02/05 09:43:34;;;;;;;;;;;19.00;61.60;;;;;;5019411;28;1390;-70
2024/02/05 09:46:04;;;;;;;;;;;19.00;61.60;;;;;;5017730;28;1240;-70
2024/02/05 09:48:34;;;;;;;;;;;19.00;61.70;;;;;;5025599;28;1732;-70
2024/02/05 09:51:00;;;;;;;;;;;19.00;61.70;;;;;;5025482;28;1536;-70
2024/02/05 09:53:26;;;;;;;;;;;19.00;61.70;;;;;;5018077;28;1959;-70
2024/02/05 09:55:51;;;;;;;;;;;19.00;61.70;;;;;;5017299;28;1480;-69
2024/02/05 09:58:17;;;;;;;;;;;19.00;61.70;;;;;;5017974;28;1567;-70
2024/02/05 10:00:42;;;;;;;;;;;19.00;61.80;;;;;;5018022;28;1679;-71
2024/02/05 10:03:08;;;;;;;;;;;19.00;61.80;;;;;;5025575;28;1567;-69
2024/02/05 10:05:34;;;;;;;;;;;19.10;61.90;;;;;;5020938;28;1289;-70
2024/02/05 10:07:59;;;;;;;;;;;19.10;61.80;;;;;;5005139;28;1360;-70
2024/02/05 10:10:25;;;;;;;;;;;19.10;61.80;;;;;;5017213;28;1429;-71
2024/02/05 10:12:50;;;;;;;;;;;19.20;61.70;;;;;;5018036;28;1906;-69
2024/02/05 10:15:16;;;;;;;;;;;19.20;61.60;;;;;;5018800;28;1587;-69
2024/02/05 10:17:42;;;;;;;;;;;19.20;61.50;;;;;;5017084;28;1597;-69
2024/02/05 10:20:09;;;;;;;;;;;19.30;61.40;;;;;;5031367;28;1586;-67
2024/02/05 10:22:36;;;;;;;;;;;19.30;61.30;;;;;;5013803;28;1678;-70
2024/02/05 10:25:03;;;;;;;;;;;19.30;61.10;;;;;;5016995;28;1465;-71
2024/02/05 10:27:29;;;;;;;;;;;19.30;61.00;;;;;;5016680;28;1496;-68
2024/02/05 10:29:57;;;;;;;;;;;19.40;61.00;;;;;;5020623;28;1582;-68
2024/02/05 10:32:24;;;;;;;;;;;19.40;61.00;;;;;;5018904;28;1964;-68
2024/02/05 10:34:51;;;;;;;;;;;19.40;60.90;;;;;;5017734;28;1129;-68
2024/02/05 10:37:18;;;;;;;;;;;19.40;60.90;;;;;;5016792;28;1312;-68
2024/02/05 10:39:43;;;;;;;;;;;19.40;60.90;;;;;;5015661;28;1668;-69
2024/02/05 10:42:09;;;;;;;;;;;19.40;60.90;;;;;;5017876;28;1424;-71
2024/02/05 10:44:34;;;;;;;;;;;19.40;60.90;;;;;;5020623;28;1575;-69
2024/02/05 10:47:01;;;;;;;;;;;19.40;61.00;;;;;;5021046;28;1261;-70
2024/02/05 10:49:26;;;;;;;;;;;19.40;61.00;;;;;;5016248;28;1499;-71
2024/02/05 10:51:52;;;;;;;;;;;19.40;61.10;;;;;;5014717;28;1350;-70
2024/02/05 10:54:17;;;;;;;;;;;19.40;61.10;;;;;;5016924;28;1890;-73
2024/02/05 10:56:43;;;;;;;;;;;19.30;61.10;;;;;;5019443;28;1744;-73
2024/02/05 10:59:08;;;;;;;;;;;19.30;61.20;;;;;;5029591;28;1427;-72
2024/02/05 11:01:40;;;;;;;;;;;19.30;61.20;;;;;;5023263;28;1350;-71
2024/02/05 11:04:06;;;;;;;;;;;19.30;61.30;;;;;;5021237;28;1657;-73
2024/02/05 11:06:32;;;;;;;;;;;19.30;61.30;;;;;;5019349;28;1489;-72
2024/02/05 11:08:58;;;;;;;;;;;19.30;61.30;;;;;;5019600;28;1329;-73
2024/02/05 11:11:23;;;;;;;;;;;19.30;61.40;;;;;;5027791;28;1291;-68
2024/02/05 11:13:51;;;;;;;;;;;19.30;61.50;;;;;;5023038;28;1958;-70
2024/02/05 11:16:17;;;;;;;;;;;19.30;61.40;;;;;;5020539;28;1515;-71
2024/02/05 11:18:46;;;;;;;;;;;19.30;61.40;;;;;;5020838;28;1288;-69
2024/02/05 11:21:12;;;;;;;;;;;19.30;61.40;;;;;;5022847;28;880;-71
2024/02/05 11:23:37;;;;;;;;;;;19.30;61.40;;;;;;5018896;28;1110;-72
2024/02/05 11:26:03;;;;;;;;;;;19.30;61.50;;;;;;5023259;28;1638;-71
2024/02/05 11:28:28;;;;;;;;;;;19.20;61.40;;;;;;5019104;28;1890;-70
2024/02/05 11:30:57;;;;;;;;;;;19.20;61.50;;;;;;5021962;28;1217;-70
2024/02/05 11:33:26;;;;;;;;;;;19.20;61.30;;;;;;5020653;28;1903;-71
2024/02/05 11:35:54;;;;;;;;;;;19.20;61.20;;;;;;5004526;28;1469;-70
2024/02/05 11:38:20;;;;;;;;;;;19.20;61.20;;;;;;5019962;28;1326;-71
2024/02/05 11:40:47;;;;;;;;;;;19.20;61.20;;;;;;5021673;28;1436;-70
2024/02/05 11:43:13;;;;;;;;;;;19.20;61.20;;;;;;5018931;28;1434;-70
2024/02/05 11:45:38;;;;;;;;;;;19.20;61.50;;;;;;5022619;28;1426;-71
2024/02/05 11:48:05;;;;;;;;;;;19.20;61.20;;;;;;5021849;28;1649;-70
2024/02/05 11:50:34;;;;;;;;;;;19.20;61.10;;;;;;5009846;28;1339;-70
2024/02/05 11:52:59;;;;;;;;;;;19.20;61.10;;;;;;5020795;28;1977;-70
2024/02/05 11:55:28;;;;;;;;;;;19.20;61.10;;;;;;5027686;28;1244;-70
2024/02/05 11:57:54;;;;;;;;;;;19.20;61.10;;;;;;5052186;28;1388;-70
2024/02/05 12:00:21;;;;;;;;;;;19.20;61.10;;;;;;5016719;28;1324;-70
2024/02/05 12:02:46;;;;;;;;;;;19.30;61.10;;;;;;5019830;28;1299;-68
2024/02/05 12:05:12;;;;;;;;;;;19.30;61.00;;;;;;5021110;28;1145;-68
2024/02/05 12:07:38;;;;;;;;;;;19.30;60.90;;;;;;5027582;28;1492;-68
2024/02/05 12:10:10;;;;;;;;;;;19.40;60.90;;;;;;5019114;28;1204;-69
2024/02/05 12:12:36;;;;;;;;;;;19.40;60.80;;;;;;5020200;28;1907;-70
2024/02/05 12:15:04;;;;;;;;;;;19.40;60.70;;;;;;5020301;28;1261;-68
2024/02/05 12:17:31;;;;;;;;;;;19.40;60.60;;;;;;5016733;28;1364;-69
2024/02/05 12:19:57;;;;;;;;;;;19.50;60.50;;;;;;5015684;28;1718;-69
2024/02/05 12:22:23;;;;;;;;;;;19.60;60.40;;;;;;5021623;28;1108;-68
2024/02/05 12:24:48;;;;;;;;;;;19.60;60.30;;;;;;5001673;28;1350;-69
2024/02/05 12:27:14;;;;;;;;;;;19.50;60.10;;;;;;5022492;28;1265;-69
2024/02/05 12:29:39;;;;;;;;;;;19.60;60.10;;;;;;5019164;28;1285;-70
2024/02/05 12:32:06;;;;;;;;;;;19.60;60.00;;;;;;5021783;28;1902;-71
2024/02/05 12:34:31;;;;;;;;;;;19.60;60.00;;;;;;5021853;28;1496;-68
2024/02/05 12:36:57;;;;;;;;;;;19.60;60.80;;;;;;5020431;28;1240;-68
2024/02/05 12:39:23;;;;;;;;;;;19.60;60.00;;;;;;5017222;28;1927;-68
2024/02/05 12:41:48;;;;;;;;;;;19.60;60.10;;;;;;5016137;28;2275;-68
2024/02/05 12:44:14;;;;;;;;;;;19.70;60.20;;;;;;5018837;28;1421;-68
2024/02/05 12:46:39;;;;;;;;;;;19.70;60.20;;;;;;5017509;28;1216;-68
2024/02/05 12:49:04;;;;;;;;;;;19.70;60.20;;;;;;5018820;28;1287;-68
2024/02/05 12:51:30;;;;;;;;;;;19.70;60.20;;;;;;5018237;28;1320;-68
2024/02/05 12:53:55;;;;;;;;;;;19.70;60.10;;;;;;5031978;28;1910;-68
2024/02/05 12:56:21;;;;;;;;;;;19.70;60.10;;;;;;5019257;28;1244;-68
2024/02/05 12:58:47;;;;;;;;;;;19.70;60.20;;;;;;5017674;28;1604;-68
2024/02/05 13:01:12;;;;;;;;;;;19.70;60.90;;;;;;5017956;28;1458;-68
2024/02/05 13:03:39;;;;;;;;;;;19.70;60.10;;;;;;5027597;28;1605;-69
2024/02/05 13:06:05;;;;;;;;;;;19.70;60.20;;;;;;5018085;28;2411;-68
2024/02/05 13:08:30;;;;;;;;;;;19.70;60.20;;;;;;5017314;28;1375;-68
2024/02/05 13:10:56;;;;;;;;;;;19.70;60.20;;;;;;5017428;28;891;-69
2024/02/05 13:13:22;;;;;;;;;;;19.70;60.30;;;;;;5018094;28;1918;-69
2024/02/05 13:15:49;;;;;;;;;;;19.70;60.30;;;;;;5017585;28;1716;-69
2024/02/05 13:18:14;;;;;;;;;;;19.70;60.40;;;;;;5019157;28;1308;-69
2024/02/05 13:20:40;;;;;;;;;;;19.70;60.40;;;;;;5026912;28;1381;-69
2024/02/05 13:23:06;;;;;;;;;;;19.60;60.30;;;;;;5027214;28;1245;-69
2024/02/05 13:25:31;;;;;;;;;;;19.60;60.40;;;;;;5021731;28;1527;-68
2024/02/05 13:27:57;;;;;;;;;;;19.60;60.50;;;;;;5017391;28;1374;-69
2024/02/05 13:30:22;;;;;;;;;;;19.60;60.50;;;;;;5020218;28;1597;-68
2024/02/05 13:32:48;;;;;;;;;;;19.60;60.60;;;;;;5001782;28;1898;-69
2024/02/05 13:35:13;;;;;;;;;;;19.60;60.70;;;;;;5018959;28;1526;-70
2024/02/05 13:37:39;;;;;;;;;;;19.60;60.80;;;;;;5019011;28;1596;-69
2024/02/05 13:40:05;;;;;;;;;;;19.60;60.80;;;;;;5004231;28;1518;-68
2024/02/05 13:42:38;;;;;;;;;;;19.60;60.90;;;;;;5019375;28;1693;-69
2024/02/05 13:45:08;;;;;;;;;;;19.50;60.90;;;;;;5018025;28;1508;-69
2024/02/05 13:47:34;;;;;;;;;;;19.50;60.90;;;;;;5023290;28;1433;-69
2024/02/05 13:49:59;;;;;;;;;;;19.50;61.00;;;;;;5019020;28;1018;-68
2024/02/05 13:52:25;;;;;;;;;;;19.40;61.00;;;;;;5020007;28;1902;-69
2024/02/05 13:54:50;;;;;;;;;;;19.40;61.10;;;;;;5005722;28;1672;-69
2024/02/05 13:57:16;;;;;;;;;;;19.40;61.20;;;;;;5015941;28;2075;-69
2024/02/05 13:59:41;;;;;;;;;;;19.40;61.20;;;;;;5014413;28;1467;-70
2024/02/05 14:02:07;;;;;;;;;;;19.40;61.30;;;;;;5012663;28;1253;-69
2024/02/05 14:04:32;;;;;;;;;;;19.40;61.40;;;;;;5018979;28;1386;-69
2024/02/05 14:06:57;;;;;;;;;;;19.40;61.50;;;;;;5017767;28;1481;-69
2024/02/05 14:09:23;;;;;;;;;;;19.30;61.50;;;;;;5016157;28;1474;-69
2024/02/05 14:11:48;;;;;;;;;;;19.30;61.50;;;;;;5020504;28;1473;-71
2024/02/05 14:14:14;;;;;;;;;;;19.30;61.60;;;;;;5013926;28;1898;-69
2024/02/05 14:16:39;;;;;;;;;;;19.30;61.60;;;;;;5017450;28;1626;-70
2024/02/05 14:19:05;;;;;;;;;;;19.30;61.70;;;;;;5017342;28;1666;-70
2024/02/05 14:21:30;;;;;;;;;;;19.30;62.50;;;;;;5018321;28;1273;-70
2024/02/05 14:23:56;;;;;;;;;;;19.20;61.70;;;;;;5019831;28;1329;-71